This is the latest recevied weather packets stored in our database for station/object N2PUI. If no packets are shown the sender has not sent any weather packets the latest 10 day(s).
| Time | Temp. | Humidity | Pressure | Rain* | Wind** | Luminosity | Snow |
|---|---|---|---|---|---|---|---|
| 1777921549 | 21.11° C | 38% | 1007.4 hPa | 0 mm | - | 747 W/m² | - |
| 1777921245 | 21.11° C | 37% | 1007.5 hPa | 0 mm | - | 756 W/m² | - |
| 1777920942 | 21.67° C | 39% | 1007.6 hPa | 0 mm | - | 776 W/m² | - |
| 1777920638 | 21.67° C | 38% | 1007.5 hPa | 0 mm | - | 380 W/m² | - |
| 1777920334 | 21.67° C | 39% | 1007.6 hPa | 0 mm | - | 279 W/m² | - |
| 1777920029 | 21.67° C | 39% | 1007.6 hPa | 0 mm | - | 772 W/m² | - |
| 1777919727 | 21.11° C | 40% | 1007.6 hPa | 0 mm | - | 865 W/m² | - |
| 1777919425 | 21.11° C | 39% | 1007.6 hPa | 0 mm | - | 527 W/m² | - |
| 1777919121 | 20.56° C | 40% | 1007.8 hPa | 0 mm | - | 872 W/m² | - |
| 1777918819 | 20.56° C | 39% | 1008 hPa | 0 mm | - | 280 W/m² | - |
| 1777918516 | 20.56° C | 43% | 1007.8 hPa | 0 mm | - | 909 W/m² | - |
| 1777918214 | 20° C | 41% | 1007.7 hPa | 0 mm | - | 234 W/m² | - |
| 1777917913 | 20.56° C | 40% | 1007.8 hPa | 0 mm | - | 217 W/m² | - |
| 1777917611 | 20° C | 41% | 1007.9 hPa | 0 mm | - | 271 W/m² | - |
| 1777917308 | 20.56° C | 39% | 1008.2 hPa | 0 mm | - | 550 W/m² | - |
| 1777917005 | 20.56° C | 40% | 1008.1 hPa | 0 mm | - | 560 W/m² | - |
| 1777916703 | 21.11° C | 39% | 1008 hPa | 0 mm | - | 213 W/m² | - |
| 1777916400 | 20° C | 40% | 1008 hPa | 0 mm | - | 928 W/m² | - |
| 1777916096 | 20.56° C | 40% | 1008.2 hPa | 0 mm | - | 927 W/m² | - |
| 1777915794 | 20.56° C | 40% | 1008.3 hPa | 0 mm | - | 895 W/m² | - |
| 1777915489 | 20° C | 41% | 1008.3 hPa | 0 mm | - | 831 W/m² | - |
| 1777915186 | 20° C | 42% | 1008.4 hPa | 0 mm | - | 820 W/m² | - |
| 1777914883 | 20° C | 40% | 1008.3 hPa | 0 mm | - | 779 W/m² | - |
| 1777914580 | 20° C | 41% | 1008.1 hPa | 0 mm | - | 780 W/m² | - |
| 1777914276 | 19.44° C | 42% | 1008.6 hPa | 0 mm | - | 807 W/m² | - |
* Rain latest hour (hover to see other rain measurements)
** Current wind speed in m/s (hover to see current wind gust speed)